Time;durP1;ratioP1;P1;durP2;ratioP2;P2;SDS_P1;SDS_P2;PMS_P1;PMS_P2;Temp;Humidity;BMP_temperature;BMP_pressure;BME280_temperature;BME280_humidity;BME280_pressure;Samples;Min_cycle;Max_cycle;Signal;HPM_P1;HPM_P2
2022/05/19 00:01:18;;;;;;;;;4.00;4.00;;;;;20.36;62.99;100616.13;5038798;28;45509;-73
2022/05/19 00:03:44;;;;;;;;;5.33;5.33;;;;;20.32;62.76;100619.69;5038203;28;45936;-73
2022/05/19 00:06:11;;;;;;;;;4.00;4.00;;;;;20.30;63.19;100619.69;5038396;28;45743;-73
2022/05/19 00:08:37;;;;;;;;;3.00;3.00;;;;;20.31;62.87;100608.16;5038568;28;45461;-73
2022/05/19 00:11:09;;;;;;;;;4.67;4.00;;;;;20.27;62.22;100615.31;5038516;28;45335;-73
2022/05/19 00:13:35;;;;;;;;;3.00;3.00;;;;;20.25;62.55;100611.78;5038149;28;45383;-73
2022/05/19 00:16:01;;;;;;;;;4.67;4.67;;;;;20.25;62.28;100614.44;5038082;28;45544;-73
2022/05/19 00:18:26;;;;;;;;;4.00;3.67;;;;;20.24;62.41;100607.34;5038298;28;45347;-73
2022/05/19 00:20:53;;;;;;;;;3.00;2.67;;;;;20.23;62.63;100613.56;5038487;28;45245;-73
2022/05/19 00:23:19;;;;;;;;;2.00;2.00;;;;;20.18;61.69;100585.31;5038191;28;46216;-73
2022/05/19 00:25:45;;;;;;;;;4.00;4.00;;;;;20.24;61.91;100590.56;5038007;28;45468;-73
2022/05/19 00:28:11;;;;;;;;;3.00;3.00;;;;;20.24;62.04;100593.22;5038330;28;45484;-73
2022/05/19 00:30:37;;;;;;;;;3.00;2.33;;;;;20.26;62.06;100599.41;5038202;28;45473;-73
2022/05/19 00:33:03;;;;;;;;;2.67;2.33;;;;;20.20;61.94;100596.81;5037290;28;46106;-73
2022/05/19 00:35:29;;;;;;;;;3.00;3.00;;;;;20.12;61.67;100580.06;5037772;28;45228;-72
2022/05/19 00:37:55;;;;;;;;;3.00;3.00;;;;;20.15;61.81;100593.28;5037705;28;45398;-73
2022/05/19 00:40:22;;;;;;;;;2.67;2.00;;;;;20.23;61.84;100610.00;5038475;28;45501;-73
2022/05/19 00:42:48;;;;;;;;;4.00;3.00;;;;;20.17;61.39;100594.16;5038116;28;46132;-73
2022/05/19 00:45:21;;;;;;;;;4.00;3.33;;;;;20.17;61.85;100599.47;5037791;28;45280;-73
2022/05/19 00:47:52;;;;;;;;;3.00;2.00;;;;;20.14;61.62;100608.34;5038237;28;46107;-73
2022/05/19 00:50:26;;;;;;;;;2.33;2.00;;;;;20.13;61.82;100601.25;5038178;28;45612;-73
2022/05/19 00:53:00;;;;;;;;;2.67;2.67;;;;;20.10;61.84;100601.31;5037553;28;45360;-73
2022/05/19 00:55:32;;;;;;;;;3.00;2.00;;;;;20.01;61.75;100590.75;5037683;28;45410;-73
2022/05/19 00:58:13;;;;;;;;;3.00;3.00;;;;;20.13;61.62;100606.56;5037569;28;45767;-73
2022/05/19 01:00:41;;;;;;;;;4.00;4.00;;;;;20.14;61.19;100607.47;5037623;28;45439;-73
2022/05/19 01:03:07;;;;;;;;;3.00;3.00;;;;;19.98;61.47;100577.53;5037344;28;45462;-73
2022/05/19 01:05:48;;;;;;;;;3.00;3.00;;;;;20.13;61.21;100595.06;5037448;28;45496;-73
2022/05/19 01:08:25;;;;;;;;;3.00;3.00;;;;;20.07;61.52;100590.69;5037485;28;45490;-73
2022/05/19 01:10:52;;;;;;;;;3.67;3.00;;;;;20.05;61.50;100596.03;5036666;28;45549;-73
2022/05/19 01:13:18;;;;;;;;;4.33;3.00;;;;;20.01;61.70;100586.31;5037464;28;45947;-73
2022/05/19 01:15:48;;;;;;;;;3.67;3.00;;;;;20.05;61.76;100589.84;5037253;28;45224;-73
2022/05/19 01:18:15;;;;;;;;;2.67;2.67;;;;;20.03;62.08;100583.66;5037338;28;45297;-73
2022/05/19 01:20:42;;;;;;;;;2.33;2.33;;;;;20.02;62.01;100582.78;5037405;28;45454;-73
2022/05/19 01:23:32;;;;;;;;;3.00;3.00;;;;;19.99;62.09;100580.16;5037020;28;46313;-73
2022/05/19 01:26:18;;;;;;;;;4.00;3.00;;;;;19.95;62.05;100589.03;5037073;28;45388;-73
2022/05/19 01:28:45;;;;;;;;;3.33;3.00;;;;;19.93;62.37;100598.75;5037348;28;45230;-73
2022/05/19 01:31:29;;;;;;;;;4.00;3.00;;;;;19.95;62.40;100604.94;5037360;28;45524;-73
2022/05/19 01:33:55;;;;;;;;;3.00;3.00;;;;;19.90;62.15;100596.16;5036842;28;45497;-73
2022/05/19 01:36:21;;;;;;;;;5.00;4.00;;;;;19.97;62.13;100603.16;5037169;28;45249;-73
2022/05/19 01:38:55;;;;;;;;;3.00;3.00;;;;;19.97;61.85;100589.91;5037189;28;45324;-72
2022/05/19 01:41:49;;;;;;;;;3.33;3.00;;;;;19.99;61.96;100587.25;5037808;28;45288;-73
2022/05/19 01:44:42;;;;;;;;;3.00;2.00;;;;;19.93;62.38;100592.59;4999801;28;46172;-73
2022/05/19 01:47:23;;;;;;;;;2.33;2.00;;;;;19.92;61.96;100590.84;5040348;28;45565;-73
2022/05/19 01:49:52;;;;;;;;;1.33;1.33;;;;;19.91;61.87;100586.41;5040389;28;45569;-73
2022/05/19 01:52:32;;;;;;;;;3.00;2.00;;;;;19.83;61.95;100582.03;5040536;28;45330;-73
2022/05/19 01:55:05;;;;;;;;;3.00;2.67;;;;;19.84;62.02;100578.53;5040213;28;45498;-73
2022/05/19 01:57:35;;;;;;;;;2.33;2.00;;;;;19.85;61.67;100585.56;5039072;28;45417;-73
2022/05/19 02:00:12;;;;;;;;;2.00;2.00;;;;;19.89;61.91;100591.72;5040490;28;45679;-73
2022/05/19 02:02:52;;;;;;;;;1.00;1.00;;;;;19.86;62.07;100597.94;5040495;28;45536;-73
2022/05/19 02:05:49;;;;;;;;;4.00;2.33;;;;;19.88;62.08;100600.59;5040104;28;46142;-73
2022/05/19 02:08:23;;;;;;;;;3.00;3.00;;;;;19.88;61.92;100587.34;5040266;28;45251;-73
2022/05/19 02:10:52;;;;;;;;;3.00;3.00;;;;;19.64;61.82;100559.22;5040365;28;45255;-73
2022/05/19 02:13:19;;;;;;;;;2.00;2.00;;;;;19.68;63.04;100582.16;5039058;28;45412;-73
2022/05/19 02:15:45;;;;;;;;;3.00;3.00;;;;;19.72;63.02;100583.03;5040002;28;45482;-73
2022/05/19 02:18:14;;;;;;;;;4.00;3.33;;;;;19.74;62.21;100579.47;5039819;28;45501;-73
2022/05/19 02:20:42;;;;;;;;;3.00;2.33;;;;;19.76;62.57;100590.97;5040109;28;45517;-72
2022/05/19 02:23:09;;;;;;;;;3.00;3.00;;;;;19.71;62.58;100592.75;5040263;28;45378;-73
2022/05/19 02:25:47;;;;;;;;;2.00;2.00;;;;;19.68;62.67;100592.75;5039912;28;46195;-73
2022/05/19 02:28:20;;;;;;;;;2.00;1.67;;;;;19.75;62.54;100607.72;5039992;28;45244;-73
2022/05/19 02:30:46;;;;;;;;;2.67;2.00;;;;;19.69;62.73;100594.50;5038612;28;45394;-73
2022/05/19 02:33:14;;;;;;;;;2.67;2.00;;;;;19.76;62.14;100593.59;5040237;28;45286;-73
2022/05/19 02:35:40;;;;;;;;;3.00;3.00;;;;;19.75;62.16;100597.13;5039919;28;46197;-72
2022/05/19 02:38:05;;;;;;;;;1.33;1.33;;;;;19.74;62.22;100600.69;5039814;28;45295;-73
2022/05/19 02:40:34;;;;;;;;;2.33;1.33;;;;;19.75;62.45;100596.25;5039890;28;45505;-73
2022/05/19 02:43:01;;;;;;;;;3.33;2.00;;;;;19.75;62.23;100598.91;5039919;28;45318;-73
2022/05/19 02:45:27;;;;;;;;;2.33;2.33;;;;;19.60;62.70;100574.25;5039943;28;45374;-73
2022/05/19 02:47:53;;;;;;;;;2.00;2.00;;;;;19.77;62.38;100599.78;5040058;28;45359;-73
2022/05/19 02:50:20;;;;;;;;;3.00;2.00;;;;;19.66;62.42;100584.81;5038321;28;45593;-73
2022/05/19 02:52:47;;;;;;;;;2.00;2.00;;;;;19.73;62.18;100598.91;5039981;28;45343;-73
2022/05/19 02:55:14;;;;;;;;;3.00;3.00;;;;;19.71;62.25;100591.84;5039492;28;45466;-73
2022/05/19 02:57:40;;;;;;;;;3.67;2.00;;;;;19.71;62.10;100594.50;5037528;28;45453;-73
2022/05/19 03:00:12;;;;;;;;;3.00;2.00;;;;;19.71;62.56;100598.03;5039432;28;45419;-73
2022/05/19 03:02:41;;;;;;;;;3.00;2.67;;;;;19.68;62.78;100596.28;5039711;28;45473;-73
2022/05/19 03:05:09;;;;;;;;;2.33;2.00;;;;;19.68;62.48;100601.56;5039272;28;45496;-73
2022/05/19 03:07:35;;;;;;;;;1.00;1.00;;;;;19.62;62.64;100588.38;5039373;28;45343;-73
2022/05/19 03:10:01;;;;;;;;;2.00;2.00;;;;;19.59;63.77;100596.31;5037976;28;45671;-73
2022/05/19 03:12:27;;;;;;;;;3.00;2.33;;;;;19.52;63.62;100591.06;5038429;28;45486;-73
2022/05/19 03:14:54;;;;;;;;;3.00;3.00;;;;;19.47;63.48;100591.97;5039065;28;45449;-73
2022/05/19 03:17:21;;;;;;;;;1.00;1.00;;;;;19.50;62.96;100593.75;5039135;28;45305;-73
2022/05/19 03:19:47;;;;;;;;;3.00;2.00;;;;;19.50;63.36;100598.13;5039348;28;45475;-74
2022/05/19 03:22:12;;;;;;;;;2.67;2.00;;;;;19.48;64.19;100607.00;5039274;28;45329;-73
2022/05/19 03:24:38;;;;;;;;;2.00;2.00;;;;;19.46;63.77;100600.81;5038824;28;45453;-73
2022/05/19 03:27:05;;;;;;;;;3.33;3.00;;;;;19.34;63.57;100584.09;5038868;28;45869;-73
2022/05/19 03:29:31;;;;;;;;;3.00;2.00;;;;;19.38;63.49;100596.47;5039495;28;45506;-73
2022/05/19 03:31:59;;;;;;;;;2.33;2.00;;;;;19.38;64.02;100593.81;5037968;28;45439;-73
2022/05/19 03:34:25;;;;;;;;;3.00;2.00;;;;;19.27;63.90;100578.84;5038753;28;45508;-73
2022/05/19 03:36:50;;;;;;;;;3.00;2.00;;;;;19.44;63.71;100605.25;5038661;28;45585;-73
2022/05/19 03:39:16;;;;;;;;;3.00;3.00;;;;;19.35;64.07;100602.66;5039130;28;45354;-73
2022/05/19 03:41:42;;;;;;;;;2.00;2.00;;;;;19.36;64.05;100611.47;5039247;28;45501;-73
2022/05/19 03:44:09;;;;;;;;;2.67;2.67;;;;;19.31;64.63;100602.69;5038553;28;45976;-73
2022/05/19 03:46:34;;;;;;;;;3.00;2.00;;;;;19.26;64.21;100611.53;5038853;28;45486;-73
2022/05/19 03:49:00;;;;;;;;;3.67;3.00;;;;;19.29;64.34;100600.03;5039021;28;45396;-72
2022/05/19 03:51:29;;;;;;;;;2.00;2.00;;;;;19.30;64.30;100600.91;5039049;28;45406;-73
2022/05/19 03:53:55;;;;;;;;;5.00;3.00;;;;;19.23;63.51;100597.41;5038388;28;46292;-73
2022/05/19 03:56:23;;;;;;;;;3.00;2.67;;;;;19.23;64.37;100611.53;5038456;28;45364;-73
2022/05/19 03:58:49;;;;;;;;;2.33;2.00;;;;;19.16;64.45;100603.59;5038571;28;45521;-73
2022/05/19 04:01:16;;;;;;;;;5.00;2.00;;;;;19.16;64.82;100617.75;5038471;28;45269;-73
2022/05/19 04:03:43;;;;;;;;;2.67;2.00;;;;;19.18;64.97;100620.38;5036899;28;46460;-73
2022/05/19 04:06:08;;;;;;;;;3.00;2.00;;;;;19.18;64.76;100620.38;5038329;28;45330;-73
2022/05/19 04:08:34;;;;;;;;;2.67;2.00;;;;;19.08;64.99;100616.91;5035847;28;45326;-74
2022/05/19 04:11:00;;;;;;;;;3.00;3.00;;;;;19.05;65.14;100619.56;5038961;28;45292;-73
2022/05/19 04:13:25;;;;;;;;;2.67;2.00;;;;;19.05;65.62;100627.50;5038323;28;45544;-73
2022/05/19 04:15:51;;;;;;;;;3.33;3.00;;;;;19.07;65.00;100621.31;5038309;28;45488;-73
2022/05/19 04:18:17;;;;;;;;;4.00;3.67;;;;;18.95;65.43;100613.41;5038216;28;45456;-73
2022/05/19 04:20:43;;;;;;;;;2.00;2.00;;;;;18.93;65.59;100617.81;5038497;28;45221;-73
2022/05/19 04:23:10;;;;;;;;;3.00;2.67;;;;;18.81;65.80;100608.16;5038180;28;46109;-73
2022/05/19 04:25:37;;;;;;;;;3.00;3.00;;;;;18.80;66.50;100611.72;5038025;28;45323;-73
2022/05/19 04:28:02;;;;;;;;;6.00;3.67;;;;;18.93;66.32;100633.72;5038452;28;45394;-73
2022/05/19 04:30:28;;;;;;;;;4.00;3.00;;;;;18.98;65.59;100637.25;5038240;28;45344;-73
2022/05/19 04:32:54;;;;;;;;;4.00;3.00;;;;;19.00;65.43;100637.22;5037712;28;45474;-73
2022/05/19 04:35:19;;;;;;;;;4.00;3.33;;;;;18.97;65.71;100629.28;5037863;28;45539;-73
2022/05/19 04:37:46;;;;;;;;;3.67;3.00;;;;;18.94;65.79;100632.84;5037798;28;45358;-73
2022/05/19 04:40:12;;;;;;;;;3.00;3.00;;;;;19.04;65.51;100649.59;5038221;28;45470;-72
2022/05/19 04:42:39;;;;;;;;;4.00;3.33;;;;;19.00;65.53;100650.44;5037804;28;45332;-72
2022/05/19 04:45:05;;;;;;;;;2.67;2.00;;;;;18.92;65.54;100653.13;5038008;28;45283;-72
2022/05/19 04:47:31;;;;;;;;;4.00;3.00;;;;;18.86;65.37;100650.47;5038113;28;45382;-72
2022/05/19 04:49:57;;;;;;;;;3.00;3.00;;;;;18.90;65.43;100668.16;5038361;28;45550;-73
2022/05/19 04:52:22;;;;;;;;;4.00;3.00;;;;;18.78;65.30;100658.44;5037558;28;45878;-73
2022/05/19 04:54:49;;;;;;;;;4.33;4.00;;;;;18.88;65.51;100673.44;5037558;28;45308;-75
2022/05/19 04:57:15;;;;;;;;;3.00;3.00;;;;;18.80;65.97;100662.00;5037655;28;45358;-72
2022/05/19 04:59:42;;;;;;;;;3.67;3.00;;;;;18.84;65.19;100674.34;5036395;28;45236;-73
2022/05/19 05:02:09;;;;;;;;;2.67;2.67;;;;;18.86;65.22;100690.19;5037326;28;46061;-73
2022/05/19 05:04:35;;;;;;;;;3.33;3.33;;;;;18.86;65.61;100691.09;5037700;28;45326;-73
2022/05/19 05:07:03;;;;;;;;;3.33;3.00;;;;;18.87;65.74;100695.47;5037839;28;45390;-73
2022/05/19 05:09:29;;;;;;;;;3.00;3.00;;;;;18.92;65.17;100694.59;5037815;28;45233;-73
2022/05/19 05:11:54;;;;;;;;;3.00;3.00;;;;;18.93;64.96;100696.38;5037430;28;45533;-73
2022/05/19 05:14:20;;;;;;;;;5.00;3.67;;;;;18.94;65.01;100692.81;5037334;28;45323;-73
2022/05/19 05:16:50;;;;;;;;;2.67;2.67;;;;;18.94;65.70;100699.03;5037369;28;45562;-73
2022/05/19 05:19:19;;;;;;;;;2.33;2.33;;;;;18.96;65.47;100696.34;5037273;28;45228;-73
2022/05/19 05:21:49;;;;;;;;;4.00;2.00;;;;;18.96;65.84;100706.94;5037072;28;45482;-73
2022/05/19 05:24:15;;;;;;;;;3.67;2.67;;;;;18.95;65.60;100698.13;5036982;28;45386;-73
2022/05/19 05:26:41;;;;;;;;;3.00;2.00;;;;;18.96;65.10;100702.53;5037169;28;45482;-72
2022/05/19 05:29:07;;;;;;;;;2.00;2.00;;;;;18.97;65.12;100698.13;5037615;28;45182;-73
2022/05/19 05:31:32;;;;;;;;;2.00;2.00;;;;;19.03;65.11;100700.75;5036793;28;45450;-73
2022/05/19 05:33:58;;;;;;;;;3.33;3.00;;;;;19.10;65.18;100709.56;5036790;28;45405;-73
2022/05/19 05:36:23;;;;;;;;;2.00;1.67;;;;;19.06;64.57;100695.47;5035695;28;45407;-72
2022/05/19 05:38:49;;;;;;;;;3.00;3.00;;;;;18.97;65.33;100684.88;5037398;28;46183;-73
2022/05/19 05:41:15;;;;;;;;;2.33;2.33;;;;;19.03;65.38;100704.28;5036927;28;45286;-73
2022/05/19 05:43:42;;;;;;;;;2.67;2.00;;;;;19.12;65.11;100703.38;5036716;28;45489;-73
2022/05/19 05:46:11;;;;;;;;;2.67;2.00;;;;;19.24;64.89;100713.06;5036103;28;45331;-75
2022/05/19 05:48:37;;;;;;;;;3.00;3.00;;;;;19.17;64.85;100701.59;5037194;28;45319;-75
2022/05/19 05:51:07;;;;;;;;;2.00;2.00;;;;;18.94;64.84;100655.75;5035332;28;47274;-73
2022/05/19 05:53:34;;;;;;;;;1.67;1.67;;;;;19.39;64.64;100720.06;5036808;28;45457;-72
2022/05/19 05:56:00;;;;;;;;;2.00;2.00;;;;;19.43;64.58;100732.41;5035501;28;45519;-72
2022/05/19 05:58:25;;;;;;;;;2.00;2.00;;;;;19.45;64.51;100730.66;5036912;28;45343;-73
2022/05/19 06:00:51;;;;;;;;;3.67;2.00;;;;;19.42;64.59;100734.19;5036594;28;45934;-72
2022/05/19 06:03:17;;;;;;;;;2.00;2.00;;;;;19.40;64.72;100729.78;5036802;28;45355;-73
2022/05/19 06:05:42;;;;;;;;;2.00;2.00;;;;;19.37;64.31;100732.44;5036916;28;45508;-72
2022/05/19 06:08:08;;;;;;;;;3.00;2.00;;;;;19.32;64.61;100736.84;5037285;28;45480;-72
2022/05/19 06:10:35;;;;;;;;;5.00;3.00;;;;;19.27;64.86;100740.41;5036585;28;45432;-72
2022/05/19 06:13:00;;;;;;;;;3.67;2.00;;;;;19.26;64.67;100738.66;5036663;28;45407;-72
2022/05/19 06:15:26;;;;;;;;;3.00;2.00;;;;;19.33;64.71;100743.94;5036576;28;45360;-72
2022/05/19 06:17:52;;;;;;;;;3.00;2.00;;;;;19.37;64.61;100753.63;5036699;28;45343;-72
2022/05/19 06:20:18;;;;;;;;;2.33;1.67;;;;;19.39;64.31;100743.91;5036557;28;45931;-72
2022/05/19 06:22:44;;;;;;;;;2.67;2.00;;;;;19.44;64.40;100755.38;5036256;28;45289;-72
2022/05/19 06:25:14;;;;;;;;;4.00;2.33;;;;;19.42;64.46;100741.28;5036805;28;45485;-73
2022/05/19 06:27:40;;;;;;;;;2.67;2.33;;;;;19.46;64.02;100732.41;5037192;28;45275;-73
2022/05/19 06:30:09;;;;;;;;;3.00;3.00;;;;;19.61;64.22;100739.41;5035159;28;45569;-73
2022/05/19 06:32:36;;;;;;;;;3.00;2.00;;;;;19.70;63.71;100751.78;5039352;28;45386;-72
2022/05/19 06:35:02;;;;;;;;;2.33;2.00;;;;;19.73;64.19;100754.41;5039898;28;45271;-73
2022/05/19 06:37:28;;;;;;;;;4.00;3.67;;;;;19.75;63.85;100756.16;5039806;28;45574;-72
2022/05/19 06:39:56;;;;;;;;;1.00;1.00;;;;;19.77;63.56;100754.38;5039554;28;45975;-72
2022/05/19 06:42:22;;;;;;;;;4.00;3.00;;;;;19.68;63.52;100742.03;5039804;28;45498;-72
2022/05/19 06:44:47;;;;;;;;;3.00;2.00;;;;;19.75;63.13;100752.66;5039629;28;45275;-72
2022/05/19 06:47:14;;;;;;;;;4.00;3.00;;;;;19.75;62.85;100755.28;5039987;28;45502;-73
2022/05/19 06:49:51;;;;;;;;;3.33;2.33;;;;;19.77;63.00;100762.34;5039782;28;45972;-72
2022/05/19 06:52:23;;;;;;;;;3.00;2.67;;;;;19.84;63.24;100758.78;5038159;28;45398;-72
2022/05/19 06:54:54;;;;;;;;;4.00;3.67;;;;;19.83;63.00;100746.41;5039394;28;45422;-73
2022/05/19 06:57:21;;;;;;;;;4.00;3.33;;;;;19.95;63.28;100756.06;5038146;28;45545;-72
2022/05/19 06:59:49;;;;;;;;;2.00;2.00;;;;;19.96;63.45;100741.06;5039218;28;46208;-73
2022/05/19 07:02:16;;;;;;;;;2.00;1.00;;;;;20.02;63.46;100752.50;5039226;28;45327;-73
2022/05/19 07:04:42;;;;;;;;;2.00;2.00;;;;;20.08;63.78;100754.25;5039248;28;45448;-73
2022/05/19 07:07:07;;;;;;;;;3.00;2.67;;;;;20.12;63.77;100755.13;5039413;28;45438;-72
2022/05/19 07:09:35;;;;;;;;;2.33;2.00;;;;;20.15;63.79;100748.00;5038920;28;46187;-73
2022/05/19 07:12:01;;;;;;;;;2.00;2.00;;;;;20.17;64.38;100754.16;5039068;28;45242;-72
2022/05/19 07:14:27;;;;;;;;;3.00;3.00;;;;;20.08;64.11;100740.13;5039335;28;45322;-72
2022/05/19 07:16:53;;;;;;;;;5.33;4.33;;;;;20.12;64.41;100740.06;5039344;28;45264;-72
2022/05/19 07:22:13;;;;;;;;;2.33;2.33;;;;;20.00;64.96;100721.59;5038965;28;45549;-73
2022/05/19 07:24:39;;;;;;;;;3.33;3.00;;;;;20.22;65.33;100759.47;5039066;28;45288;-72
2022/05/19 07:27:05;;;;;;;;;3.00;3.00;;;;;20.21;65.34;100747.09;5039381;28;45475;-73
2022/05/19 07:29:31;;;;;;;;;2.00;2.00;;;;;20.27;64.77;100757.66;5038873;28;45385;-75
2022/05/19 07:32:01;;;;;;;;;3.00;3.00;;;;;20.30;64.89;100762.06;5038436;28;45520;-72
2022/05/19 07:34:29;;;;;;;;;3.00;3.00;;;;;20.36;64.63;100757.59;5038267;28;45403;-73
2022/05/19 07:36:55;;;;;;;;;3.33;3.00;;;;;20.31;63.88;100735.50;5038227;28;45411;-73
2022/05/19 07:39:22;;;;;;;;;3.00;2.33;;;;;19.83;63.11;100652.75;5038277;28;45507;-73
2022/05/19 07:41:48;;;;;;;;;4.00;3.00;;;;;20.55;63.16;100758.34;5038514;28;45493;-72
2022/05/19 07:44:14;;;;;;;;;4.33;2.67;;;;;20.64;62.67;100760.09;5036237;28;45356;-72
2022/05/19 07:46:40;;;;;;;;;3.33;2.33;;;;;20.70;62.51;100762.69;5038217;28;45386;-73
2022/05/19 07:49:06;;;;;;;;;2.67;2.67;;;;;20.77;61.77;100758.19;5037560;28;46182;-73
2022/05/19 07:51:39;;;;;;;;;4.00;2.67;;;;;20.82;62.34;100751.94;5037990;28;45319;-72
2022/05/19 07:54:06;;;;;;;;;3.00;2.00;;;;;21.01;61.88;100762.44;5037924;28;45293;-73
2022/05/19 07:56:32;;;;;;;;;6.00;5.00;;;;;21.00;61.04;100742.06;5037636;28;45266;-73
2022/05/19 07:58:58;;;;;;;;;4.00;4.00;;;;;21.22;60.59;100751.56;5037871;28;45560;-72
2022/05/19 08:01:25;;;;;;;;;4.00;3.33;;;;;21.29;59.55;100756.81;5037560;28;45390;-73
2022/05/19 08:03:50;;;;;;;;;2.00;2.00;;;;;21.14;59.51;100724.19;5037754;28;45271;-73
2022/05/19 08:06:16;;;;;;;;;4.33;3.33;;;;;21.21;59.53;100723.25;5036783;28;45294;-73
2022/05/19 08:08:43;;;;;;;;;3.00;3.00;;;;;21.40;59.87;100726.56;5052317;28;45448;-73
2022/05/19 08:11:10;;;;;;;;;3.00;3.00;;;;;21.63;59.09;100746.72;5038051;28;45478;-72
2022/05/19 08:16:21;;;;;;;;;4.00;4.00;;;;;21.61;57.90;100738.75;5037737;28;45501;-73
2022/05/19 08:18:46;;;;;;;;;3.00;3.00;;;;;21.48;57.98;100739.78;5038114;28;45435;-73
2022/05/19 08:21:13;;;;;;;;;4.67;4.00;;;;;21.47;58.55;100739.81;5037801;28;45779;-73
2022/05/19 08:23:41;;;;;;;;;3.67;3.00;;;;;21.36;57.76;100747.88;5037699;28;45268;-72
2022/05/19 08:26:11;;;;;;;;;6.00;6.00;;;;;21.17;58.24;100741.88;5037502;28;45479;-73
2022/05/19 08:28:38;;;;;;;;;4.33;4.00;;;;;21.24;58.00;100752.41;5037521;28;46160;-73
2022/05/19 08:31:06;;;;;;;;;3.00;3.00;;;;;21.30;57.16;100753.25;5036208;28;45322;-73
2022/05/19 08:33:34;;;;;;;;;3.67;3.00;;;;;21.40;57.51;100744.28;5037510;28;45353;-72
2022/05/19 08:35:59;;;;;;;;;4.00;4.00;;;;;21.49;57.58;100725.63;5037527;28;45398;-72
2022/05/19 08:38:26;;;;;;;;;3.00;3.00;;;;;21.74;56.86;100743.91;5037206;28;46270;-73
2022/05/19 08:40:58;;;;;;;;;4.67;3.67;;;;;21.80;56.63;100741.16;5037351;28;45343;-73
2022/05/19 08:43:30;;;;;;;;;2.33;2.33;;;;;21.95;56.57;100733.00;5037520;28;45298;-72
2022/05/19 08:46:00;;;;;;;;;5.00;4.00;;;;;21.79;56.16;100720.81;5037237;28;45220;-73
2022/05/19 08:48:28;;;;;;;;;3.00;3.00;;;;;21.80;56.49;100743.81;5036659;28;45505;-73
2022/05/19 08:50:59;;;;;;;;;5.67;5.00;;;;;21.97;56.36;100731.19;5037235;28;45477;-73
2022/05/19 08:53:31;;;;;;;;;4.33;4.00;;;;;21.98;55.15;100732.06;5037220;28;45474;-72
2022/05/19 08:56:20;;;;;;;;;5.33;4.33;;;;;22.05;55.63;100731.94;5037204;28;45481;-72
2022/05/19 08:59:05;;;;;;;;;4.33;4.00;;;;;22.19;55.86;100730.88;5037405;28;45298;-72
2022/05/19 09:01:50;;;;;;;;;4.67;4.00;;;;;22.30;55.53;100730.75;5037128;28;45524;-73
2022/05/19 09:04:39;;;;;;;;;3.00;3.00;;;;;22.35;54.98;100715.59;5037413;28;45450;-73
2022/05/19 09:10:38;;;;;;;;;2.00;2.00;;;;;22.59;54.14;100711.63;5037347;28;45314;-73
2022/05/19 09:13:16;;;;;;;;;6.33;4.00;;;;;22.82;53.78;100714.78;5037101;28;45308;-73
2022/05/19 09:15:45;;;;;;;;;3.67;3.67;;;;;22.83;53.27;100705.88;5037139;28;45325;-72
2022/05/19 09:18:16;;;;;;;;;2.00;2.00;;;;;22.94;52.63;100695.03;5037045;28;45876;-73
2022/05/19 09:20:56;;;;;;;;;3.00;3.00;;;;;23.08;53.11;100702.81;5036798;28;45407;-72
2022/05/19 09:23:23;;;;;;;;;2.00;2.00;;;;;23.14;52.49;100676.03;5037051;28;45395;-73
2022/05/19 09:25:54;;;;;;;;;5.33;3.67;;;;;23.48;52.31;100702.00;5037375;28;45372;-73
2022/05/19 09:28:19;;;;;;;;;3.00;3.00;;;;;23.56;51.32;100694.72;5037085;28;45467;-74
2022/05/19 09:30:49;;;;;;;;;2.33;2.33;;;;;23.64;51.19;100691.88;5036570;28;45504;-73
2022/05/19 09:33:22;;;;;;;;;3.33;2.00;;;;;23.73;51.31;100689.00;5036668;28;45534;-73
2022/05/19 09:35:54;;;;;;;;;4.00;3.00;;;;;23.92;51.13;100693.97;5036984;28;45416;-73
2022/05/19 09:38:43;;;;;;;;;3.67;3.00;;;;;24.14;49.99;100700.56;5037159;28;45379;-73
2022/05/19 09:41:31;;;;;;;;;3.67;3.00;;;;;24.10;50.59;100682.00;5036009;28;45334;-73
2022/05/19 09:43:58;;;;;;;;;3.00;3.00;;;;;24.17;50.21;100696.94;5036294;28;45546;-73
2022/05/19 09:46:36;;;;;;;;;2.33;2.00;;;;;24.17;50.73;100697.81;5036719;28;45361;-73
2022/05/19 09:49:06;;;;;;;;;3.67;3.00;;;;;24.21;50.10;100687.94;5036988;28;45311;-73
2022/05/19 09:51:44;;;;;;;;;2.67;2.67;;;;;24.30;49.64;100686.84;5036518;28;46219;-73
2022/05/19 09:54:12;;;;;;;;;2.00;2.00;;;;;24.39;49.37;100683.94;5036485;28;45293;-73
2022/05/19 09:56:48;;;;;;;;;4.00;2.67;;;;;24.61;49.18;100689.63;5036722;28;45379;-75
2022/05/19 09:59:25;;;;;;;;;4.00;4.00;;;;;24.75;48.68;100678.59;5036579;28;45306;-73
2022/05/19 10:02:04;;;;;;;;;3.00;2.00;;;;;24.90;48.61;100688.00;5036518;28;46218;-75
2022/05/19 10:04:39;;;;;;;;;4.00;4.00;;;;;25.20;48.28;100687.13;5034783;28;45387;-73
2022/05/19 10:07:26;;;;;;;;;3.67;3.00;;;;;25.40;48.23;100678.56;5036785;28;45310;-73
2022/05/19 10:09:55;;;;;;;;;3.33;3.00;;;;;25.43;47.78;100677.63;5039090;28;45370;-73
2022/05/19 10:12:28;;;;;;;;;4.33;4.00;;;;;25.57;47.31;100675.41;5038558;28;46224;-73
2022/05/19 10:15:02;;;;;;;;;3.00;3.00;;;;;25.76;47.25;100672.16;5039506;28;45514;-73
2022/05/19 10:17:52;;;;;;;;;4.00;4.00;;;;;26.04;46.18;100669.50;5037865;28;45470;-73
2022/05/19 10:20:22;;;;;;;;;4.00;3.00;;;;;26.26;45.96;100664.38;5038499;28;45526;-72
2022/05/19 10:22:55;;;;;;;;;4.00;3.67;;;;;26.33;46.41;100657.00;5039422;28;45323;-73
2022/05/19 10:26:02;;;;;;;;;5.00;5.00;;;;;26.47;45.98;100656.53;5039890;28;45339;-75
2022/05/19 10:31:51;;;;;;;;;6.00;5.00;;;;;26.94;44.74;100651.34;5039197;28;45331;-73
2022/05/19 10:34:38;;;;;;;;;4.67;4.67;;;;;27.21;43.93;100652.09;5038839;28;45438;-73
2022/05/19 10:37:27;;;;;;;;;6.33;6.33;;;;;27.13;44.28;100647.03;5037861;28;45404;-73
2022/05/19 10:40:12;;;;;;;;;4.67;4.00;;;;;27.08;44.22;100646.34;5039490;28;45292;-73
2022/05/19 10:42:49;;;;;;;;;3.00;3.00;;;;;26.77;45.00;100652.78;5039573;28;45330;-73
2022/05/19 10:45:23;;;;;;;;;5.00;4.00;;;;;26.48;45.42;100648.44;5039285;28;46219;-73
2022/05/19 10:47:58;;;;;;;;;3.67;3.67;;;;;26.61;45.33;100643.56;5039365;28;45467;-73
2022/05/19 10:50:32;;;;;;;;;3.00;3.00;;;;;26.80;44.58;100619.66;5039427;28;45470;-73
2022/05/19 10:53:00;;;;;;;;;3.33;2.33;;;;;27.11;43.92;100639.97;5039718;28;45262;-73
2022/05/19 10:55:58;;;;;;;;;5.33;5.00;;;;;27.23;43.81;100641.31;5039216;28;46176;-73
2022/05/19 10:58:46;;;;;;;;;5.00;4.00;;;;;27.46;43.87;100632.44;5002732;28;45477;-73
2022/05/19 11:01:37;;;;;;;;;4.00;3.00;;;;;27.76;42.39;100625.84;5037807;28;45312;-73
2022/05/19 11:04:37;;;;;;;;;6.33;5.33;;;;;28.08;42.78;100625.50;5039502;28;45517;-73
2022/05/19 11:07:19;;;;;;;;;5.00;3.33;;;;;28.21;42.55;100624.03;5039052;28;45478;-73
2022/05/19 11:10:11;;;;;;;;;4.33;4.00;;;;;28.33;42.14;100614.56;5039068;28;45607;-73
2022/05/19 11:12:52;;;;;;;;;4.00;4.00;;;;;28.45;41.65;100591.69;5039195;28;45482;-73
2022/05/19 11:15:21;;;;;;;;;3.00;3.00;;;;;28.84;41.20;100613.28;5039260;28;45341;-73
2022/05/19 11:18:21;;;;;;;;;3.67;3.00;;;;;29.00;40.57;100593.75;5036645;28;46788;-73
2022/05/19 11:20:53;;;;;;;;;3.67;3.67;;;;;29.22;40.34;100610.66;5037295;28;45267;-73
2022/05/19 11:23:28;;;;;;;;;4.67;4.00;;;;;29.13;39.86;100611.97;5039250;28;45288;-73
2022/05/19 11:26:23;;;;;;;;;4.00;4.00;;;;;29.37;39.82;100597.44;5039335;28;45284;-73
2022/05/19 11:29:26;;;;;;;;;4.00;4.00;;;;;29.53;39.53;100593.94;5038694;28;46140;-73
2022/05/19 11:32:14;;;;;;;;;4.00;4.00;;;;;29.52;39.16;100586.81;5038613;28;45253;-73
2022/05/19 11:35:05;;;;;;;;;4.00;3.00;;;;;29.79;39.11;100599.91;5038738;28;45336;-73
2022/05/19 11:38:02;;;;;;;;;4.33;4.00;;;;;30.10;39.11;100587.59;5031163;28;45372;-73
2022/05/19 11:40:43;;;;;;;;;3.33;3.00;;;;;30.19;38.10;100584.44;5038825;28;46204;-74
2022/05/19 11:43:34;;;;;;;;;3.00;3.00;;;;;30.52;37.45;100586.34;5038478;28;45572;-73
2022/05/19 11:46:14;;;;;;;;;6.67;5.67;;;;;30.13;37.84;100565.91;5038412;28;45500;-74
2022/05/19 11:57:42;;;;;;;;;4.33;3.67;;;;;28.69;41.05;100568.25;5038430;28;45499;-74
2022/05/19 12:00:11;;;;;;;;;3.33;3.33;;;;;28.68;41.08;100564.69;5038579;28;45522;-73
2022/05/19 12:02:52;;;;;;;;;5.00;4.00;;;;;28.74;40.72;100560.88;5038021;28;45349;-73